Terminal Aerodrome Forecast
Issued by NWS

Home | Current Version | Previous Version | Text Only | Print | Product List | Glossary On
Versions: 1 2 3 4 5 6 7 8 9 10 11 12 13 14 15 16 17
683
FTUS42 KGSP 271720
TAFGMU
TAF
KGMU 271720Z 2718/2818 15006KT P6SM BKN120
     FM280000 03004KT P6SM OVC040
     FM280800 04003KT P6SM BKN030
     FM281300 05003KT P6SM BKN012
     FM281600 20005KT P6SM BKN020 PROB30 2816/2818 6SM -SHRA OVC015=

USA.gov is the U.S. government's official web portal to all federal, state and local government web resources and services.